createdAt,value
2019-01-28T00:01:56.770Z,995.2
2019-01-28T00:06:56.768Z,995.4
2019-01-28T00:11:56.807Z,995.4
2019-01-28T00:16:56.772Z,995.4
2019-01-28T00:21:56.786Z,995.5
2019-01-28T00:26:56.918Z,995.4
2019-01-28T00:31:56.866Z,995.3
2019-01-28T00:36:56.794Z,995.3
2019-01-28T00:41:57.944Z,995.2
2019-01-28T00:46:56.967Z,995.1
2019-01-28T00:51:56.940Z,995.1
2019-01-28T00:56:56.779Z,995
2019-01-28T01:01:56.905Z,995
2019-01-28T01:06:56.981Z,995.1
2019-01-28T01:11:56.787Z,995.2
2019-01-28T01:16:56.802Z,995.2
2019-01-28T01:21:56.795Z,995.3
2019-01-28T01:26:56.801Z,995.5
2019-01-28T01:31:56.798Z,995.6
2019-01-28T01:36:56.836Z,995.9
2019-01-28T01:41:56.841Z,995.9
2019-01-28T01:46:56.821Z,996.2
2019-01-28T01:51:57.181Z,996.2
2019-01-28T01:56:56.828Z,996.2
2019-01-28T02:01:56.796Z,996.1
2019-01-28T02:06:56.985Z,996.1
2019-01-28T02:11:57.042Z,996.2
2019-01-28T02:16:57.029Z,996.2
2019-01-28T02:21:56.830Z,996.2
2019-01-28T02:26:57.012Z,996.2
2019-01-28T02:31:56.821Z,996.2
2019-01-28T02:36:56.850Z,996.4
2019-01-28T02:41:56.846Z,996.4
2019-01-28T02:46:56.856Z,996.5
2019-01-28T02:51:56.878Z,996.4
2019-01-28T02:56:56.854Z,996.5
2019-01-28T03:01:56.857Z,996.5
2019-01-28T03:06:57.094Z,996.6
2019-01-28T03:11:56.855Z,996.7
2019-01-28T03:16:56.856Z,996.8
2019-01-28T03:21:56.880Z,996.9
2019-01-28T03:26:57.023Z,997.1
2019-01-28T03:31:56.884Z,997.1
2019-01-28T03:36:57.085Z,997.2
2019-01-28T03:41:56.875Z,997.2
2019-01-28T03:46:57.060Z,997.2
2019-01-28T03:51:57.104Z,997.3
2019-01-28T03:56:56.878Z,997.7
2019-01-28T04:01:56.894Z,997.6
2019-01-28T04:06:57.088Z,997.8
2019-01-28T04:11:56.881Z,997.9
2019-01-28T04:16:56.908Z,998
2019-01-28T04:21:57.040Z,998.1
2019-01-28T04:26:56.898Z,998.2
2019-01-28T04:31:56.913Z,998.4
2019-01-28T04:36:57.087Z,998.4
2019-01-28T04:41:56.903Z,998.5
2019-01-28T04:46:57.179Z,998.6
2019-01-28T04:51:56.927Z,998.7
2019-01-28T04:56:56.937Z,998.8
2019-01-28T05:01:56.881Z,998.9
2019-01-28T05:06:56.970Z,998.8
2019-01-28T05:11:57.029Z,998.9
2019-01-28T05:16:57.065Z,999
2019-01-28T05:21:57.097Z,999
2019-01-28T05:26:57.124Z,999
2019-01-28T05:31:56.971Z,999
2019-01-28T05:36:57.092Z,999
2019-01-28T05:41:56.958Z,999
2019-01-28T05:46:57.170Z,998.7
2019-01-28T05:51:56.943Z,998.8
2019-01-28T05:56:56.962Z,998.8
2019-01-28T06:01:57.153Z,998.8
2019-01-28T06:06:57.072Z,998.8
2019-01-28T06:11:56.966Z,998.8
2019-01-28T06:16:56.998Z,999
2019-01-28T06:21:56.971Z,999
2019-01-28T06:26:57.148Z,999
2019-01-28T06:31:56.967Z,999.1
2019-01-28T06:36:57.001Z,999.1
2019-01-28T06:41:56.976Z,999.1
2019-01-28T06:46:56.989Z,999.2
2019-01-28T06:51:56.992Z,999.3
2019-01-28T06:56:57.020Z,999.3
2019-01-28T07:01:56.995Z,999.3
2019-01-28T07:06:56.979Z,999.4
2019-01-28T07:11:57.223Z,999.4
2019-01-28T07:16:57.139Z,999.3
2019-01-28T07:21:57.182Z,999.3
2019-01-28T07:26:57.008Z,999.3
2019-01-28T07:31:57.034Z,999.4
2019-01-28T07:36:56.983Z,999.4
2019-01-28T07:41:57.228Z,999.5
2019-01-28T07:46:57.014Z,999.5
2019-01-28T07:51:57.184Z,999.5
2019-01-28T07:56:57.214Z,999.7
2019-01-28T08:01:57.298Z,999.6
2019-01-28T08:06:59.935Z,999.7
2019-01-28T08:11:57.005Z,999.7
2019-01-28T08:16:57.041Z,999.7
2019-01-28T08:21:57.192Z,999.7
2019-01-28T08:26:57.039Z,999.7
2019-01-28T08:31:57.279Z,999.7
2019-01-28T08:36:57.492Z,999.8
2019-01-28T08:41:57.005Z,999.8
2019-01-28T08:46:57.270Z,999.8
2019-01-28T08:51:57.074Z,999.8
2019-01-28T08:56:57.084Z,999.9
2019-01-28T09:01:57.279Z,999.7
2019-01-28T09:06:57.073Z,999.7
2019-01-28T09:11:57.058Z,999.7
2019-01-28T09:16:57.067Z,999.7
2019-01-28T09:21:57.075Z,999.7
2019-01-28T09:26:57.215Z,999.7
2019-01-28T09:31:57.288Z,999.6
2019-01-28T09:36:57.057Z,999.5
2019-01-28T09:41:57.070Z,999.4
2019-01-28T09:46:57.088Z,999.5
2019-01-28T09:51:57.084Z,999.5
2019-01-28T09:56:57.343Z,999.5
2019-01-28T10:01:57.138Z,999.4
2019-01-28T10:06:57.167Z,999.4
2019-01-28T10:11:57.123Z,999.3
2019-01-28T10:16:57.107Z,999.3
2019-01-28T10:21:57.286Z,999.3
2019-01-28T10:26:57.376Z,999.3
2019-01-28T10:31:57.304Z,999.2
2019-01-28T10:36:57.325Z,999.3
2019-01-28T10:41:57.120Z,999.2
2019-01-28T10:46:57.277Z,999.2
2019-01-28T10:51:58.484Z,999.2
2019-01-28T10:56:57.350Z,999.1
2019-01-28T11:01:57.257Z,999
2019-01-28T11:06:57.288Z,999.1
2019-01-28T11:11:57.635Z,999.1
2019-01-28T11:16:57.432Z,998.9
2019-01-28T11:21:57.686Z,998.9
2019-01-28T11:26:57.440Z,998.8
2019-01-28T11:31:57.547Z,998.8
2019-01-28T11:36:57.646Z,998.9
2019-01-28T11:41:57.375Z,998.7
2019-01-28T11:46:57.727Z,998.7
2019-01-28T11:51:57.141Z,998.7
2019-01-28T11:56:57.368Z,998.7
2019-01-28T12:01:57.387Z,998.7
2019-01-28T12:06:57.435Z,998.7
2019-01-28T12:11:57.170Z,998.5
2019-01-28T12:16:57.193Z,998.5
2019-01-28T12:21:57.188Z,998.6
2019-01-28T12:26:57.208Z,998.6
2019-01-28T12:31:57.167Z,998.6
2019-01-28T12:36:57.203Z,998.7
2019-01-28T12:41:57.189Z,998.6
2019-01-28T12:46:57.139Z,998.7
2019-01-28T12:51:57.499Z,998.6
2019-01-28T12:56:57.223Z,998.6
2019-01-28T13:01:57.197Z,998.8
2019-01-28T13:06:57.217Z,998.9
2019-01-28T13:11:57.170Z,998.9
2019-01-28T13:16:57.268Z,998.9
2019-01-28T13:21:57.219Z,999
2019-01-28T13:26:57.350Z,999
2019-01-28T13:31:57.200Z,999
2019-01-28T13:36:57.431Z,999
2019-01-28T13:41:57.468Z,999.1
2019-01-28T13:46:57.366Z,999.1
2019-01-28T13:51:57.280Z,999.2
2019-01-28T13:56:57.481Z,999.3
2019-01-28T14:01:57.223Z,999.3
2019-01-28T14:06:57.397Z,999.4
2019-01-28T14:11:57.244Z,999.3
2019-01-28T14:16:57.353Z,999.5
2019-01-28T14:21:57.225Z,999.4
2019-01-28T14:26:57.460Z,999.4
2019-01-28T14:31:57.292Z,999.5
2019-01-28T14:36:57.270Z,999.5
2019-01-28T14:41:57.381Z,999.6
2019-01-28T14:46:57.486Z,999.6
2019-01-28T14:51:57.340Z,999.6
2019-01-28T14:56:57.252Z,999.6
2019-01-28T15:01:57.504Z,999.6
2019-01-28T15:06:57.393Z,999.8
2019-01-28T15:11:57.282Z,999.8
2019-01-28T15:16:57.473Z,999.8
2019-01-28T15:21:57.312Z,999.8
2019-01-28T15:26:57.593Z,1000
2019-01-28T15:31:57.291Z,1000
2019-01-28T15:36:57.254Z,1000
2019-01-28T15:41:57.471Z,1000
2019-01-28T15:46:57.287Z,1000.2
2019-01-28T15:51:57.627Z,1000.1
2019-01-28T15:56:57.294Z,1000.2
2019-01-28T16:01:57.329Z,1000.3
2019-01-28T16:06:57.924Z,1000.2
2019-01-28T16:11:57.322Z,1000.3
2019-01-28T16:16:57.342Z,1000.5
2019-01-28T16:21:57.435Z,1000.7
2019-01-28T16:26:57.355Z,1000.8
2019-01-28T16:31:57.321Z,1000.8
2019-01-28T16:36:57.308Z,1000.8
2019-01-28T16:41:57.408Z,1000.9
2019-01-28T16:46:57.325Z,1001
2019-01-28T16:51:57.372Z,1001.1
2019-01-28T16:56:57.345Z,1001.1
2019-01-28T17:01:57.335Z,1001.1
2019-01-28T17:06:57.334Z,1001.2
2019-01-28T17:11:57.357Z,1001.3
2019-01-28T17:16:57.734Z,1001.4
2019-01-28T17:21:57.370Z,1001.4
2019-01-28T17:26:57.306Z,1001.4
2019-01-28T17:31:58.039Z,1001.5
2019-01-28T17:37:00.444Z,1001.6
2019-01-28T17:41:57.370Z,1001.6
2019-01-28T17:46:57.423Z,1001.6
2019-01-28T17:51:57.379Z,1001.7
2019-01-28T17:56:57.411Z,1001.7
2019-01-28T18:01:57.372Z,1001.7
2019-01-28T18:06:57.387Z,1001.8
2019-01-28T18:11:57.377Z,1001.9
2019-01-28T18:16:57.355Z,1001.9
2019-01-28T18:21:57.392Z,1002
2019-01-28T18:26:57.390Z,1001.9
2019-01-28T18:31:57.379Z,1002
2019-01-28T18:36:57.398Z,1002
2019-01-28T18:41:58.779Z,1002
2019-01-28T18:46:57.369Z,1002.1
2019-01-28T18:51:57.389Z,1002
2019-01-28T18:56:57.382Z,1002
2019-01-28T19:01:57.394Z,1002.1
2019-01-28T19:06:57.409Z,1002.1
2019-01-28T19:11:57.422Z,1002.1
2019-01-28T19:16:57.409Z,1002.2
2019-01-28T19:21:57.431Z,1002.2
2019-01-28T19:26:57.562Z,1002.3
2019-01-28T19:31:57.416Z,1002.3
2019-01-28T19:36:58.000Z,1002.2
2019-01-28T19:41:57.439Z,1002.2
2019-01-28T19:46:59.003Z,1002.2
2019-01-28T19:51:57.429Z,1002.3
2019-01-28T19:56:57.541Z,1002.2
2019-01-28T20:01:57.412Z,1002.3
2019-01-28T20:06:57.458Z,1002.4
2019-01-28T20:11:57.432Z,1002.5
2019-01-28T20:16:57.441Z,1002.6
2019-01-28T20:21:57.492Z,1002.7
2019-01-28T20:26:57.844Z,1002.9
2019-01-28T20:31:58.476Z,1002.8
2019-01-28T20:36:57.453Z,1002.8
2019-01-28T20:41:57.445Z,1002.9
2019-01-28T20:46:57.476Z,1003
2019-01-28T20:51:57.507Z,1003
2019-01-28T20:56:57.530Z,1003.1
2019-01-28T21:01:57.545Z,1003
2019-01-28T21:06:57.522Z,1003
2019-01-28T21:11:57.562Z,1002.9
2019-01-28T21:16:57.533Z,1002.9
2019-01-28T21:21:57.571Z,1003
2019-01-28T21:26:57.506Z,1003.1
2019-01-28T21:31:57.543Z,1003.1
2019-01-28T21:36:57.523Z,1003
2019-01-28T21:41:57.468Z,1003
2019-01-28T21:46:57.478Z,1003.1
2019-01-28T21:51:57.499Z,1003
2019-01-28T21:56:57.505Z,1003.1
2019-01-28T22:01:57.483Z,1003.2
2019-01-28T22:06:57.481Z,1003.3
2019-01-28T22:11:57.479Z,1003.3
2019-01-28T22:16:57.693Z,1003.5
2019-01-28T22:21:59.736Z,1003.4
2019-01-28T22:26:57.497Z,1003.6
2019-01-28T22:31:57.501Z,1003.6
2019-01-28T22:36:58.966Z,1003.7
2019-01-28T22:41:57.925Z,1003.8
2019-01-28T22:46:57.582Z,1003.8
2019-01-28T22:51:57.508Z,1004
2019-01-28T22:56:57.516Z,1004.1
2019-01-28T23:01:57.514Z,1004
2019-01-28T23:06:57.511Z,1004.1
2019-01-28T23:11:57.516Z,1004.1
2019-01-28T23:16:57.713Z,1004.1
2019-01-28T23:21:57.774Z,1004.2
2019-01-28T23:26:57.571Z,1004.3
2019-01-28T23:31:57.559Z,1004.4
2019-01-28T23:36:57.566Z,1004.4
2019-01-28T23:41:57.698Z,1004.4
2019-01-28T23:46:57.593Z,1004.4
2019-01-28T23:51:57.575Z,1004.6
2019-01-28T23:56:57.564Z,1004.6
